Time;durP1;ratioP1;P1;durP2;ratioP2;P2;SDS_P1;SDS_P2;PMS_P1;PMS_P2;Temp;Humidity;BMP_temperature;BMP_pressure;BME280_temperature;BME280_humidity;BME280_pressure;Samples;Min_cycle;Max_cycle;Signal;HPM_P1;HPM_P2
2022/04/18 00:02:23;;;;;;;0.00;0.00;;;;;;;9.56;40.03;102052.28;10415818;28;20493;-74
2022/04/18 00:07:25;;;;;;;0.10;0.10;;;;;;;9.41;41.57;102043.00;10414974;28;20042;-74
2022/04/18 00:12:28;;;;;;;0.00;0.00;;;;;;;9.23;41.65;102045.56;10415839;28;20129;-73
2022/04/18 00:17:30;;;;;;;0.00;0.00;;;;;;;9.39;40.43;102047.19;10415629;28;20069;-74
2022/04/18 00:22:31;;;;;;;0.00;0.00;;;;;;;9.45;39.74;102044.91;10445114;28;20072;-74
2022/04/18 00:27:33;;;;;;;0.00;0.00;;;;;;;9.49;39.82;102036.50;10455420;28;20492;-73
2022/04/18 00:32:35;;;;;;;0.00;0.00;;;;;;;9.55;40.10;102045.34;10396762;28;20057;-74
2022/04/18 00:37:39;;;;;;;0.00;0.00;;;;;;;9.25;40.39;102037.91;10415400;28;20041;-73
2022/04/18 00:42:43;;;;;;;0.05;0.05;;;;;;;9.00;42.78;102037.56;10444670;28;20056;-74
2022/04/18 00:47:44;;;;;;;0.00;0.00;;;;;;;7.89;48.89;102040.28;10454436;28;20103;-74
2022/04/18 00:52:47;;;;;;;0.00;0.00;;;;;;;7.81;49.46;102031.28;10422429;28;20073;-74
2022/04/18 00:57:49;;;;;;;0.00;0.00;;;;;;;8.16;45.19;102034.88;10414092;28;20073;-75
2022/04/18 01:02:51;;;;;;;1.05;0.98;;;;;;;8.03;45.37;102028.22;10431296;28;20041;-74
2022/04/18 01:07:55;;;;;;;0.00;0.00;;;;;;;7.87;45.58;102026.47;10412338;28;20049;-74
2022/04/18 01:13:01;;;;;;;0.00;0.00;;;;;;;7.40;50.99;102017.03;10443696;28;20049;-74
2022/04/18 01:18:14;;;;;;;0.00;0.00;;;;;;;7.13;50.51;102023.22;10452966;28;20358;-74
2022/04/18 01:23:34;;;;;;;0.00;0.00;;;;;;;7.04;51.95;102032.03;10416870;28;20049;-75
2022/04/18 01:29:03;;;;;;;0.00;0.00;;;;;;;6.82;51.50;102028.19;10411531;28;20039;-74
2022/04/18 01:34:07;;;;;;;0.00;0.00;;;;;;;7.64;46.22;102027.78;10409419;28;20135;-74
2022/04/18 01:39:09;;;;;;;0.00;0.00;;;;;;;7.73;45.99;102022.25;10411011;28;20136;-74
2022/04/18 01:44:11;;;;;;;0.00;0.00;;;;;;;7.73;45.26;102022.25;10410378;28;20045;-74
2022/04/18 01:49:13;;;;;;;0.00;0.00;;;;;;;7.71;45.48;102024.75;10443234;28;20045;-75
2022/04/18 01:54:14;;;;;;;0.00;0.00;;;;;;;7.24;49.23;102021.28;10410703;28;20130;-75
2022/04/18 01:59:17;;;;;;;0.00;0.00;;;;;;;7.14;52.93;102021.53;10411406;28;20132;-74
2022/04/18 02:04:19;;;;;;;0.00;0.00;;;;;;;6.85;51.66;102015.59;10426356;28;20056;-74
2022/04/18 02:09:38;;;;;;;0.00;0.00;;;;;;;7.14;48.63;102004.50;10410924;28;20452;-74
2022/04/18 02:14:42;;;;;;;0.00;0.00;;;;;;;6.96;48.82;101996.59;10449961;28;20103;-74
2022/04/18 02:19:45;;;;;;;0.00;0.00;;;;;;;7.13;48.17;101984.78;10445823;28;20489;-74
2022/04/18 02:24:46;;;;;;;0.00;0.00;;;;;;;6.89;51.03;101986.78;10409873;28;20119;-74
2022/04/18 02:29:48;;;;;;;0.05;0.05;;;;;;;6.88;51.12;101972.22;10413060;28;20048;-74
2022/04/18 02:34:50;;;;;;;0.00;0.00;;;;;;;6.51;57.53;101975.19;10411169;28;20054;-75
2022/04/18 02:39:54;;;;;;;0.00;0.00;;;;;;;6.26;56.83;101976.25;10409313;28;20037;-74
2022/04/18 02:44:58;;;;;;;0.00;0.00;;;;;;;6.10;59.32;101983.78;10408970;28;20053;-74
2022/04/18 02:50:35;;;;;;;2.28;2.10;;;;;;;5.53;58.19;101968.31;10420412;28;20431;-74
2022/04/18 02:55:37;;;;;;;0.00;0.00;;;;;;;5.78;52.28;101974.94;10449648;28;20468;-74
2022/04/18 03:00:39;;;;;;;0.00;0.00;;;;;;;5.84;50.99;101970.25;10440616;28;20057;-75
2022/04/18 03:05:41;;;;;;;0.00;0.00;;;;;;;5.63;58.37;101962.97;10432683;28;20053;-74
2022/04/18 03:16:06;;;;;;;0.00;0.00;;;;;;;5.69;58.31;101953.16;10449756;28;20059;-74
2022/04/18 03:21:10;;;;;;;0.00;0.00;;;;;;;5.88;53.75;101946.63;10448114;28;20069;-74
2022/04/18 03:26:13;;;;;;;76.18;28.63;;;;;;;5.70;55.50;101948.91;10449307;28;20052;-74
2022/04/18 03:31:26;;;;;;;0.43;0.43;;;;;;;5.75;57.11;101960.31;10426635;28;20046;-74
2022/04/18 03:41:49;;;;;;;;;;;;;;;5.45;57.56;101955.03;10435582;28;20052;-74
2022/04/18 03:46:51;;;;;;;0.00;0.00;;;;;;;5.23;59.46;101957.88;10456061;28;19925;-74
2022/04/18 03:51:52;;;;;;;0.00;0.00;;;;;;;5.47;57.41;101953.47;10454507;28;20076;-74
2022/04/18 03:56:54;;;;;;;0.00;0.00;;;;;;;5.43;57.38;101955.72;10455546;28;20411;-74
2022/04/18 04:02:19;;;;;;;0.00;0.00;;;;;;;5.33;58.39;101949.13;10431902;28;20046;-74
2022/04/18 04:07:27;;;;;;;0.00;0.00;;;;;;;5.05;60.18;101968.66;10398402;28;20053;-74
2022/04/18 04:12:44;;;;;;;0.00;0.00;;;;;;;5.11;57.49;101972.41;10413652;28;20080;-74
2022/04/18 04:18:21;;;;;;;0.05;0.05;;;;;;;5.02;59.55;101963.38;10413878;28;20402;-74
2022/04/18 04:23:25;;;;;;;0.00;0.00;;;;;;;5.08;58.23;101963.78;10397438;28;20052;-74
2022/04/18 04:28:56;;;;;;;0.00;0.00;;;;;;;5.12;57.43;101957.19;10415093;28;20053;-74
2022/04/18 04:34:01;;;;;;;0.10;0.10;;;;;;;5.32;58.99;101952.47;10416619;28;20053;-74
2022/04/18 04:39:06;;;;;;;0.00;0.00;;;;;;;5.32;57.78;101943.16;10412730;28;20083;-74
2022/04/18 04:44:13;;;;;;;0.00;0.00;;;;;;;5.07;58.32;101959.44;10416469;28;20069;-75
2022/04/18 04:49:29;;;;;;;0.52;0.52;;;;;;;5.16;55.53;101956.59;10438913;28;20052;-74
2022/04/18 04:54:43;;;;;;;0.00;0.00;;;;;;;5.48;53.38;101962.00;10421511;28;20099;-74
2022/04/18 04:59:52;;;;;;;0.00;0.00;;;;;;;5.58;54.42;101961.81;10397965;28;20141;-74
2022/04/18 05:04:58;;;;;;;0.00;0.00;;;;;;;5.29;57.42;101952.31;10423433;28;20136;-75
2022/04/18 05:10:01;;;;;;;0.00;0.00;;;;;;;5.12;59.48;101953.75;10428153;28;20128;-74
2022/04/18 05:15:05;;;;;;;0.00;0.00;;;;;;;5.18;61.36;101956.69;10453663;28;20076;-74
2022/04/18 05:20:28;;;;;;;0.00;0.00;;;;;;;5.40;59.49;101961.53;10452766;28;20052;-78
2022/04/18 05:25:30;;;;;;;0.00;0.00;;;;;;;5.76;57.94;101961.22;10449297;28;20500;-78
2022/04/18 05:30:32;;;;;;;0.00;0.00;;;;;;;6.30;54.48;101965.41;10409407;28;20409;-78
2022/04/18 05:35:34;;;;;;;0.73;0.73;;;;;;;6.61;53.49;101969.78;10412614;28;20049;-78
2022/04/18 05:40:36;;;;;;;0.00;0.00;;;;;;;6.89;54.23;101968.84;10450622;28;20049;-78
2022/04/18 05:45:39;;;;;;;0.00;0.00;;;;;;;7.33;51.45;101961.06;10448274;28;20357;-78
2022/04/18 05:50:53;;;;;;;0.05;0.05;;;;;;;7.75;49.09;101965.09;10392782;28;20080;-78
2022/04/18 05:55:58;;;;;;;0.00;0.00;;;;;;;8.08;47.23;101952.34;10397969;28;20048;-78
2022/04/18 06:01:10;;;;;;;0.30;0.20;;;;;;;8.24;47.27;101951.44;10439319;28;20094;-78
2022/04/18 06:06:12;;;;;;;0.00;0.00;;;;;;;8.59;45.32;101963.50;10409380;28;20041;-78
2022/04/18 06:11:14;;;;;;;0.00;0.00;;;;;;;8.94;44.73;101956.69;10411540;28;20042;-78
2022/04/18 06:16:22;;;;;;;0.00;0.00;;;;;;;9.29;44.69;101965.22;10420570;28;20065;-78
2022/04/18 06:21:23;;;;;;;0.20;0.20;;;;;;;9.41;44.99;101960.69;10407907;28;20532;-78
2022/04/18 06:26:25;;;;;;;1.08;0.95;;;;;;;9.77;44.44;101960.66;10408076;28;20052;-78
2022/04/18 06:31:29;;;;;;;0.00;0.00;;;;;;;10.52;43.07;101969.13;10407611;28;20100;-78
2022/04/18 06:36:34;;;;;;;0.10;0.10;;;;;;;10.70;42.03;101969.91;10414967;28;20136;-78
2022/04/18 06:41:51;;;;;;;0.63;0.63;;;;;;;10.88;41.75;101959.47;10411978;28;20069;-79
2022/04/18 06:46:58;;;;;;;0.00;0.00;;;;;;;11.86;42.13;101961.59;10410025;28;20061;-79
2022/04/18 06:52:22;;;;;;;0.30;0.30;;;;;;;12.26;39.76;101962.22;10440928;28;20467;-80
2022/04/18 06:57:53;;;;;;;1.23;1.13;;;;;;;11.91;39.78;101966.94;10427141;28;20058;-79
2022/04/18 07:02:56;;;;;;;2.63;1.75;;;;;;;12.97;38.70;101954.31;10412893;28;20037;-79
2022/04/18 07:07:58;;;;;;;4.40;1.45;;;;;;;13.16;37.66;101955.78;10433983;28;20402;-79
2022/04/18 07:13:00;;;;;;;5.40;2.58;;;;;;;13.41;37.53;101961.75;10413426;28;20220;-79
2022/04/18 07:18:03;;;;;;;0.08;0.08;;;;;;;13.98;36.07;101957.41;10451841;28;20045;-78
2022/04/18 07:23:07;;;;;;;1.13;1.02;;;;;;;13.99;36.93;101961.75;10431797;28;20516;-78
2022/04/18 07:28:23;;;;;;;0.65;0.55;;;;;;;14.74;35.19;101959.47;10410230;28;20049;-79
2022/04/18 07:33:25;;;;;;;7.13;2.22;;;;;;;14.16;36.42;101958.75;10416761;28;20068;-79
2022/04/18 07:38:49;;;;;;;2.70;1.85;;;;;;;14.44;34.40;101955.22;10413916;28;20048;-80
2022/04/18 07:43:55;;;;;;;3.17;1.30;;;;;;;15.17;34.86;101947.56;10415724;28;20045;-81
2022/04/18 07:48:57;;;;;;;0.45;0.45;;;;;;;15.19;34.64;101942.41;10433762;28;20411;-80
2022/04/18 07:53:59;;;;;;;10.18;3.72;;;;;;;15.40;34.48;101942.00;10407504;28;20069;-80
2022/04/18 07:59:02;;;;;;;1.65;1.08;;;;;;;15.57;34.84;101941.53;10422699;28;20068;-80
2022/04/18 08:04:09;;;;;;;3.20;1.27;;;;;;;15.96;34.24;101940.66;10429182;28;20049;-80
2022/04/18 08:09:13;;;;;;;2.00;1.25;;;;;;;16.37;33.84;101940.56;10402654;28;20049;-80
2022/04/18 08:14:15;;;;;;;5.90;2.80;;;;;;;15.67;32.76;101946.09;10415218;28;20508;-80
2022/04/18 08:19:26;;;;;;;3.05;1.88;;;;;;;16.43;33.06;101940.66;10432880;28;20073;-80
2022/04/18 08:24:28;;;;;;;0.00;0.00;;;;;;;17.66;31.29;101930.44;10415516;28;20053;-80
2022/04/18 08:29:48;;;;;;;1.55;0.85;;;;;;;17.39;30.91;101930.94;10415504;28;20041;-80
2022/04/18 08:34:55;;;;;;;4.00;2.15;;;;;;;16.99;32.10;101931.25;10412202;28;20099;-81
2022/04/18 08:39:57;;;;;;;3.83;2.25;;;;;;;17.65;32.86;101927.84;10429493;28;20041;-81
2022/04/18 08:45:07;;;;;;;1.70;0.47;;;;;;;18.08;30.19;101924.03;10431274;28;20057;-81
2022/04/18 08:55:33;;;;;;;0.40;0.40;;;;;;;18.67;30.58;101908.94;10450145;28;20045;-82
2022/04/18 09:00:47;;;;;;;0.10;0.10;;;;;;;18.56;29.50;101900.16;10414491;28;20103;-82
2022/04/18 09:06:10;;;;;;;0.93;0.57;;;;;;;18.93;30.17;101900.47;10412423;28;20049;-82
2022/04/18 09:11:33;;;;;;;0.08;0.08;;;;;;;19.13;29.00;101908.44;10413099;28;20041;-82
2022/04/18 09:16:40;;;;;;;0.00;0.00;;;;;;;20.75;28.16;101899.34;10419420;28;20044;-83
2022/04/18 09:21:56;;;;;;;0.05;0.05;;;;;;;20.13;29.70;101896.69;10441558;28;20076;-81
2022/04/18 09:27:25;;;;;;;0.10;0.10;;;;;;;20.60;29.02;101898.44;10416628;28;20068;-79
2022/04/18 09:32:31;;;;;;;;;;;;;;;19.39;29.28;101899.00;10409466;28;20049;-80
2022/04/18 09:37:53;;;;;;;3.53;1.88;;;;;;;20.43;31.13;101884.50;10436321;28;20399;-80
2022/04/18 09:43:21;;;;;;;1.00;0.47;;;;;;;21.67;26.92;101882.53;10447980;28;20435;-80
2022/04/18 09:48:27;;;;;;;0.85;0.43;;;;;;;20.81;26.23;101885.38;10417210;28;20060;-80
2022/04/18 09:53:31;;;;;;;0.20;0.20;;;;;;;20.64;27.74;101877.50;10409345;28;20053;-80
2022/04/18 09:58:34;;;;;;;0.80;0.70;;;;;;;20.47;26.45;101873.16;10410977;28;20080;-81
2022/04/18 10:03:56;;;;;;;1.75;1.33;;;;;;;20.45;25.74;101867.03;10409989;28;20490;-80
2022/04/18 10:08:58;;;;;;;1.10;0.75;;;;;;;22.27;26.12;101864.69;10412313;28;20053;-80
2022/04/18 10:14:03;;;;;;;0.25;0.20;;;;;;;21.16;27.64;101866.97;10426311;28;20091;-79
2022/04/18 10:19:36;;;;;;;3.55;1.70;;;;;;;21.68;22.93;101862.44;10418545;28;20110;-80
2022/04/18 10:24:55;;;;;;;1.67;1.15;;;;;;;21.23;28.11;101855.59;10432404;28;20088;-79
2022/04/18 10:30:00;;;;;;;0.00;0.00;;;;;;;21.99;23.98;101846.53;10415856;28;20069;-78
2022/04/18 10:35:03;;;;;;;0.00;0.00;;;;;;;22.76;24.15;101851.13;10408928;28;20594;-79
2022/04/18 10:40:07;;;;;;;2.03;1.17;;;;;;;22.04;22.82;101847.34;10403816;28;20046;-82
2022/04/18 10:45:14;;;;;;;0.15;0.15;;;;;;;21.80;24.47;101846.63;10390621;28;20144;-81
2022/04/18 10:50:18;;;;;;;0.22;0.22;;;;;;;23.56;24.52;101838.00;10457664;28;20048;-81
2022/04/18 10:55:20;;;;;;;1.40;0.75;;;;;;;21.98;23.39;101834.28;10431214;28;20038;-80
2022/04/18 11:00:21;;;;;;;0.00;0.00;;;;;;;23.94;23.78;101827.84;10424314;28;20046;-79
2022/04/18 11:05:36;;;;;;;0.40;0.40;;;;;;;21.46;23.02;101836.28;10426789;28;20053;-79
2022/04/18 11:10:44;;;;;;;0.30;0.22;;;;;;;22.49;24.31;101829.53;10424893;28;20084;-78
2022/04/18 11:15:45;;;;;;;1.00;0.60;;;;;;;21.71;23.80;101830.94;10414015;28;20046;-79
2022/04/18 11:20:49;;;;;;;0.57;0.40;;;;;;;22.78;24.15;101823.09;10389612;28;20145;-80
2022/04/18 11:25:55;;;;;;;1.15;0.80;;;;;;;22.16;24.39;101823.63;10437134;28;20041;-80
2022/04/18 11:30:56;;;;;;;0.00;0.00;;;;;;;23.79;23.69;101816.63;10414994;28;20312;-80
2022/04/18 11:36:04;;;;;;;2.22;2.00;;;;;;;21.70;22.60;101823.97;10423371;28;20050;-80
2022/04/18 11:41:09;;;;;;;0.27;0.27;;;;;;;22.56;22.12;101811.06;10433104;28;20086;-80
2022/04/18 11:46:11;;;;;;;0.03;0.03;;;;;;;23.34;21.98;101801.47;10447581;28;20053;-79
2022/04/18 11:51:13;;;;;;;0.52;0.52;;;;;;;23.03;20.38;101795.69;10440108;28;20071;-80
2022/04/18 11:56:14;;;;;;;2.13;1.05;;;;;;;22.34;24.09;101798.13;10438669;28;20048;-81
2022/04/18 12:06:45;;;;;;;2.08;1.02;;;;;;;20.94;23.20;101794.56;10417920;28;20070;-78
2022/04/18 12:11:47;;;;;;;0.45;0.45;;;;;;;22.82;20.66;101793.28;10424155;28;20041;-76
2022/04/18 12:16:49;;;;;;;2.45;0.45;;;;;;;23.21;21.63;101781.47;10432460;28;20072;-77
2022/04/18 12:21:55;;;;;;;0.00;0.00;;;;;;;22.45;22.45;101777.06;10426863;28;20124;-77
2022/04/18 12:33:50;;;;;;;0.00;0.00;;;;;;;23.27;21.16;101757.75;10428289;28;20041;-76
2022/04/18 12:38:52;;;;;;;0.10;0.10;;;;;;;23.14;20.97;101752.59;10418620;28;20045;-75
2022/04/18 12:44:28;;;;;;;0.17;0.17;;;;;;;23.58;23.69;101742.41;10419030;28;20130;-76
2022/04/18 12:49:29;;;;;;;0.00;0.00;;;;;;;22.85;21.77;101749.47;10419482;28;20076;-74
2022/04/18 12:54:31;;;;;;;0.00;0.00;;;;;;;21.98;22.70;101735.44;10419039;28;20136;-75
2022/04/18 12:59:32;;;;;;;0.47;0.40;;;;;;;21.75;23.51;101733.00;10419234;28;20037;-75
2022/04/18 13:04:34;;;;;;;0.00;0.00;;;;;;;22.33;22.62;101730.75;10417450;28;20037;-75
2022/04/18 13:09:36;;;;;;;0.50;0.35;;;;;;;21.41;23.88;101722.72;10416374;28;20061;-76
2022/04/18 13:15:05;;;;;;;0.00;0.00;;;;;;;22.36;23.34;101720.22;10418748;28;20046;-75
2022/04/18 13:20:08;;;;;;;0.00;0.00;;;;;;;21.64;23.41;101711.22;10417542;28;20104;-74
2022/04/18 13:25:12;;;;;;;0.00;0.00;;;;;;;22.08;23.24;101702.09;10420105;28;20049;-76
2022/04/18 13:30:14;;;;;;;0.25;0.15;;;;;;;21.95;24.93;101697.88;10417771;28;20390;-75
2022/04/18 13:35:17;;;;;;;0.00;0.00;;;;;;;22.18;26.25;101695.91;10417575;28;20041;-74
2022/04/18 13:40:22;;;;;;;0.00;0.00;;;;;;;22.64;23.96;101691.06;10417287;28;20469;-74
2022/04/18 13:45:23;;;;;;;0.08;0.08;;;;;;;22.32;23.51;101687.00;10457670;28;20051;-74
2022/04/18 13:50:25;;;;;;;0.00;0.00;;;;;;;22.59;23.56;101685.88;10458133;28;20073;-76
2022/04/18 13:55:27;;;;;;;0.30;0.25;;;;;;;21.37;24.40;101674.69;10457853;28;20080;-76
2022/04/18 14:00:28;;;;;;;0.10;0.10;;;;;;;20.78;23.84;101679.38;10440211;28;20464;-76
2022/04/18 14:05:30;;;;;;;0.00;0.00;;;;;;;22.12;25.58;101667.09;10457816;28;20076;-77
2022/04/18 14:10:32;;;;;;;0.45;0.45;;;;;;;21.79;25.05;101666.53;10457721;28;20417;-76
2022/04/18 14:21:00;;;;;;;0.00;0.00;;;;;;;22.18;22.45;101667.03;10411074;28;20087;-74
2022/04/18 14:26:02;;;;;;;0.00;0.00;;;;;;;22.12;23.20;101653.97;10410959;28;20107;-78
2022/04/18 14:31:05;;;;;;;0.08;0.08;;;;;;;21.87;23.76;101648.13;10409044;28;20377;-79
2022/04/18 14:36:07;;;;;;;0.00;0.00;;;;;;;22.01;25.20;101642.72;10420870;28;20441;-81
2022/04/18 14:41:09;;;;;;;0.00;0.00;;;;;;;21.96;24.05;101641.91;10433154;28;20029;-78
2022/04/18 14:46:10;;;;;;;0.00;0.00;;;;;;;22.00;23.70;101635.75;10427625;28;20072;-77
2022/04/18 14:51:12;;;;;;;0.00;0.00;;;;;;;20.92;24.09;101625.19;10451398;28;20128;-77
2022/04/18 14:56:14;;;;;;;0.00;0.00;;;;;;;21.94;23.59;101623.56;10435905;28;20053;-77
2022/04/18 15:01:16;;;;;;;0.17;0.17;;;;;;;21.23;22.89;101619.75;10430308;28;20041;-77
2022/04/18 15:06:18;;;;;;;0.10;0.10;;;;;;;20.68;23.80;101609.56;10412669;28;20499;-77
2022/04/18 15:11:21;;;;;;;0.00;0.00;;;;;;;21.51;23.41;101598.56;10403040;28;20069;-77
2022/04/18 15:16:30;;;;;;;0.00;0.00;;;;;;;21.72;24.11;101596.66;10402708;28;20062;-76
2022/04/18 15:21:34;;;;;;;1.23;0.35;;;;;;;20.59;24.79;101606.13;10400394;28;20433;-76
2022/04/18 15:26:36;;;;;;;0.00;0.00;;;;;;;20.81;23.83;101595.59;10400951;28;20560;-78
2022/04/18 15:37:04;;;;;;;0.00;0.00;;;;;;;20.28;26.13;101590.56;10432642;28;20080;-78
2022/04/18 15:42:06;;;;;;;0.00;0.00;;;;;;;21.31;23.73;101588.25;10440055;28;20064;-79
2022/04/18 15:47:08;;;;;;;0.93;0.90;;;;;;;20.65;26.39;101583.41;10419523;28;20137;-79
2022/04/18 15:52:10;;;;;;;0.93;0.82;;;;;;;20.10;28.26;101580.16;10462049;28;20515;-79
2022/04/18 15:57:12;;;;;;;0.00;0.00;;;;;;;20.90;25.30;101582.41;10453995;28;20076;-78
2022/04/18 16:02:14;;;;;;;0.00;0.00;;;;;;;20.29;32.08;101587.03;10424731;28;20458;-78
2022/04/18 16:07:16;;;;;;;0.00;0.00;;;;;;;20.29;25.31;101580.94;10450962;28;20088;-78
2022/04/18 16:12:17;;;;;;;0.00;0.00;;;;;;;20.10;26.91;101577.53;10419876;28;20119;-78
2022/04/18 16:17:19;;;;;;;0.00;0.00;;;;;;;20.99;24.12;101572.75;10448811;28;20535;-78
2022/04/18 16:22:21;;;;;;;0.00;0.00;;;;;;;20.69;28.01;101556.34;10418542;28;20634;-78
2022/04/18 16:27:23;;;;;;;0.00;0.00;;;;;;;20.96;24.88;101562.31;10429662;28;20127;-78
2022/04/18 16:32:25;;;;;;;0.00;0.00;;;;;;;20.53;24.84;101547.69;10419492;28;20420;-77
2022/04/18 16:37:26;;;;;;;0.20;0.20;;;;;;;20.76;24.48;101544.97;10415345;28;20111;-77
2022/04/18 16:47:48;;;;;;;0.00;0.00;;;;;;;21.07;28.18;101534.28;10444548;28;20133;-77
2022/04/18 16:52:50;;;;;;;0.00;0.00;;;;;;;20.70;27.79;101529.28;10402577;28;20041;-76
2022/04/18 16:57:52;;;;;;;0.00;0.00;;;;;;;20.29;25.23;101524.25;10383627;28;20050;-77
2022/04/18 17:02:54;;;;;;;0.00;0.00;;;;;;;20.41;25.11;101527.69;10402561;28;20045;-77
2022/04/18 17:07:55;;;;;;;0.00;0.00;;;;;;;20.55;25.49;101523.25;10420048;28;20045;-77
2022/04/18 17:12:57;;;;;;;0.00;0.00;;;;;;;20.70;25.29;101524.91;10417115;28;20489;-77
2022/04/18 17:17:59;;;;;;;0.00;0.00;;;;;;;20.57;24.96;101529.34;10413431;28;20037;-77
2022/04/18 17:23:01;;;;;;;0.00;0.00;;;;;;;20.87;25.42;101516.97;10404854;28;20046;-78
2022/04/18 17:28:02;;;;;;;0.00;0.00;;;;;;;20.38;27.51;101512.00;10405467;28;20120;-76
2022/04/18 17:33:04;;;;;;;0.00;0.00;;;;;;;20.58;26.68;101512.78;10418294;28;20037;-76
2022/04/18 17:38:06;;;;;;;0.00;0.00;;;;;;;20.08;26.92;101511.25;10451199;28;20124;-77
2022/04/18 17:43:07;;;;;;;0.00;0.00;;;;;;;20.21;27.31;101510.34;10435023;28;20471;-77
2022/04/18 17:48:09;;;;;;;0.00;0.00;;;;;;;19.94;30.32;101521.78;10416663;28;20131;-77
2022/04/18 17:58:31;;;;;;;0.00;0.00;;;;;;;19.47;29.93;101521.00;10441470;28;20041;-77
2022/04/18 18:03:33;;;;;;;0.00;0.00;;;;;;;19.25;29.75;101523.59;10397022;28;20068;-77
2022/04/18 18:08:34;;;;;;;0.00;0.00;;;;;;;19.06;29.83;101527.97;10415565;28;20057;-77
2022/04/18 18:13:38;;;;;;;0.00;0.00;;;;;;;18.80;30.36;101530.53;10409084;28;20515;-77
2022/04/18 18:18:40;;;;;;;0.00;0.00;;;;;;;18.56;30.35;101534.81;10416587;28;20045;-77
2022/04/18 18:23:42;;;;;;;0.00;0.00;;;;;;;18.19;31.98;101530.31;10412527;28;20049;-77
2022/04/18 18:28:43;;;;;;;0.00;0.00;;;;;;;18.08;32.42;101526.81;10408425;28;20535;-77
2022/04/18 18:33:45;;;;;;;0.00;0.00;;;;;;;17.71;33.11;101532.66;10408935;28;20045;-76
2022/04/18 18:38:46;;;;;;;0.00;0.00;;;;;;;17.53;33.83;101543.81;10421453;28;20045;-76
2022/04/18 18:43:48;;;;;;;0.00;0.00;;;;;;;17.18;34.14;101535.72;10407840;28;20111;-78
2022/04/18 18:48:53;;;;;;;0.00;0.00;;;;;;;16.99;34.57;101545.97;10408422;28;20136;-78
2022/04/18 18:53:54;;;;;;;0.00;0.00;;;;;;;16.88;33.98;101545.84;10407980;28;20047;-78
2022/04/18 18:58:56;;;;;;;0.00;0.00;;;;;;;16.77;35.46;101545.75;10408884;28;20110;-77
2022/04/18 19:03:57;;;;;;;0.00;0.00;;;;;;;16.49;36.78;101550.59;10407244;28;20460;-77
2022/04/18 19:08:59;;;;;;;0.00;0.00;;;;;;;16.29;38.53;101562.50;10412429;28;20045;-77
2022/04/18 19:14:01;;;;;;;0.00;0.00;;;;;;;16.12;36.23;101560.56;10415519;28;20049;-78
2022/04/18 19:30:06;;;;;;;0.00;0.00;;;;;;;14.28;46.28;101567.72;10369570;28;20136;-78
2022/04/18 19:35:07;;;;;;;0.00;0.00;;;;;;;14.10;45.96;101565.63;10405886;28;20477;-77
2022/04/18 19:40:10;;;;;;;0.00;0.00;;;;;;;14.18;45.72;101569.25;10415804;28;20088;-77
2022/04/18 19:45:11;;;;;;;0.00;0.00;;;;;;;13.97;47.87;101569.66;10415685;28;20483;-77
2022/04/18 19:50:13;;;;;;;0.00;0.00;;;;;;;13.80;48.46;101566.69;10415898;28;20515;-77
2022/04/18 19:55:15;;;;;;;0.00;0.00;;;;;;;14.12;48.33;101559.63;10415748;28;20805;-76
2022/04/18 20:00:17;;;;;;;0.10;0.10;;;;;;;13.70;46.57;101562.09;10415755;28;20073;-76
2022/04/18 20:05:18;;;;;;;0.00;0.00;;;;;;;13.54;50.21;101553.09;10409852;28;20481;-76
2022/04/18 20:10:20;;;;;;;0.00;0.00;;;;;;;13.22;54.32;101546.25;10415349;28;20057;-76
2022/04/18 20:15:31;;;;;;;0.00;0.00;;;;;;;12.54;57.80;101547.06;10412936;28;20457;-77
2022/04/18 20:20:33;;;;;;;0.00;0.00;;;;;;;12.33;54.77;101555.91;10376371;28;20078;-77
2022/04/18 20:25:35;;;;;;;0.00;0.00;;;;;;;11.91;54.92;101556.38;10405876;28;20054;-77
2022/04/18 20:30:37;;;;;;;3.03;2.83;;;;;;;10.95;58.23;101553.25;10416583;28;20046;-77
2022/04/18 20:35:39;;;;;;;0.00;0.00;;;;;;;11.37;57.15;101545.19;10414827;28;20052;-77
2022/04/18 20:40:41;;;;;;;0.00;0.00;;;;;;;11.51;58.62;101544.78;10415050;28;20057;-77
2022/04/18 20:45:44;;;;;;;0.00;0.00;;;;;;;10.70;64.89;101551.50;10413572;28;20073;-76
2022/04/18 20:50:46;;;;;;;0.00;0.00;;;;;;;10.59;64.48;101545.97;10443551;28;20083;-76
2022/04/18 21:01:08;;;;;;;0.00;0.00;;;;;;;11.48;58.69;101549.84;10448176;28;20037;-77
2022/04/18 21:06:10;;;;;;;0.00;0.00;;;;;;;11.27;59.19;101546.59;10412154;28;20393;-77
2022/04/18 21:11:11;;;;;;;0.00;0.00;;;;;;;11.61;56.98;101551.13;10402250;28;20112;-77
2022/04/18 21:16:14;;;;;;;0.00;0.00;;;;;;;10.72;59.72;101548.16;10404271;28;20084;-77
2022/04/18 21:21:16;;;;;;;0.00;0.00;;;;;;;11.16;58.76;101547.06;10421099;28;20048;-77
2022/04/18 21:26:17;;;;;;;0.00;0.00;;;;;;;11.12;58.47;101548.66;10386252;28;20493;-77
2022/04/18 21:31:19;;;;;;;0.00;0.00;;;;;;;11.20;56.51;101552.38;10405816;28;20064;-77
2022/04/18 21:41:41;;;;;;;0.00;0.00;;;;;;;11.04;57.87;101551.00;10411514;28;20087;-76
2022/04/18 21:46:43;;;;;;;0.00;0.00;;;;;;;10.85;57.93;101546.00;10411386;28;20038;-76
2022/04/18 21:51:46;;;;;;;0.00;0.00;;;;;;;11.05;56.60;101550.19;10410741;28;20116;-78
2022/04/18 21:56:48;;;;;;;0.00;0.00;;;;;;;11.06;56.61;101557.06;10411323;28;20061;-76
2022/04/18 22:01:49;;;;;;;0.00;0.00;;;;;;;10.77;57.60;101554.34;10407637;28;20057;-77
2022/04/18 22:06:51;;;;;;;0.00;0.00;;;;;;;10.77;57.43;101554.34;10410767;28;20484;-77
2022/04/18 22:11:53;;;;;;;0.00;0.00;;;;;;;9.99;63.52;101570.31;10410233;28;20400;-76
2022/04/18 22:16:55;;;;;;;0.00;0.00;;;;;;;9.74;65.33;101559.06;10410884;28;20398;-76
2022/04/18 22:27:16;;;;;;;0.00;0.00;;;;;;;9.54;65.86;101555.66;10412081;28;20514;-76
2022/04/18 22:32:21;;;;;;;0.00;0.00;;;;;;;9.41;65.07;101551.75;10409177;28;20037;-76
2022/04/18 22:37:24;;;;;;;0.00;0.00;;;;;;;9.69;65.44;101546.00;10409172;28;20124;-76
2022/04/18 22:42:25;;;;;;;0.00;0.00;;;;;;;9.89;63.56;101542.47;10407838;28;20571;-77
2022/04/18 22:47:27;;;;;;;0.00;0.00;;;;;;;9.82;59.66;101547.38;10426414;28;20520;-77
2022/04/18 22:52:29;;;;;;;0.32;0.32;;;;;;;9.07;63.02;101547.75;10450108;28;20049;-76
2022/04/18 22:57:31;;;;;;;0.00;0.00;;;;;;;9.58;60.29;101547.28;10447570;28;20099;-76
2022/04/18 23:02:33;;;;;;;0.00;0.00;;;;;;;9.98;56.11;101533.38;10438119;28;20111;-77
2022/04/18 23:07:38;;;;;;;0.00;0.00;;;;;;;9.96;55.94;101540.19;10426891;28;20174;-76
2022/04/18 23:12:40;;;;;;;0.00;0.00;;;;;;;9.52;59.58;101537.63;10448165;28;20048;-77
2022/04/18 23:17:43;;;;;;;0.00;0.00;;;;;;;8.88;61.28;101541.84;10427897;28;20042;-77
2022/04/18 23:22:45;;;;;;;0.00;0.00;;;;;;;8.69;61.17;101536.69;10408929;28;20127;-77
2022/04/18 23:27:47;;;;;;;0.00;0.00;;;;;;;8.96;59.84;101538.72;10429456;28;20048;-77
2022/04/18 23:32:51;;;;;;;0.00;0.00;;;;;;;9.16;58.42;101536.97;10409808;28;20405;-76
2022/04/18 23:37:54;;;;;;;0.00;0.00;;;;;;;9.21;58.08;101538.94;10432396;28;20389;-77
2022/04/18 23:42:56;;;;;;;1.80;1.70;;;;;;;8.63;60.18;101528.72;10449465;28;20419;-77
2022/04/18 23:47:57;;;;;;;0.00;0.00;;;;;;;7.98;62.35;101538.63;10432162;28;20472;-77
2022/04/18 23:52:59;;;;;;;0.00;0.00;;;;;;;8.05;63.52;101532.97;10448932;28;20500;-77
2022/04/18 23:58:01;;;;;;;0.00;0.00;;;;;;;7.99;63.35;101528.41;10431493;28;20049;-77
